createdAt,value
2019-01-29T00:00:19.292Z,2.90
2019-01-29T00:01:19.263Z,3.10
2019-01-29T00:02:19.258Z,2.60
2019-01-29T00:03:19.236Z,3.00
2019-01-29T00:04:19.229Z,2.90
2019-01-29T00:05:19.225Z,3.00
2019-01-29T00:06:19.210Z,2.80
2019-01-29T00:07:19.192Z,2.90
2019-01-29T00:08:19.188Z,2.90
2019-01-29T00:09:19.165Z,2.70
2019-01-29T00:10:19.174Z,2.70
2019-01-29T00:11:19.142Z,2.80
2019-01-29T00:12:19.147Z,2.70
2019-01-29T00:13:19.128Z,2.90
2019-01-29T00:14:19.115Z,2.70
2019-01-29T00:15:19.112Z,2.80
2019-01-29T00:16:19.086Z,2.80
2019-01-29T00:17:19.081Z,2.70
2019-01-29T00:18:19.079Z,2.60
2019-01-29T00:19:19.054Z,2.70
2019-01-29T00:29:32.301Z,1.90
2019-01-29T00:32:49.694Z,2.60
2019-01-29T00:33:49.669Z,2.40
2019-01-29T00:34:49.657Z,2.60
2019-01-29T00:35:49.660Z,2.30
2019-01-29T00:36:49.633Z,2.50
2019-01-29T00:37:49.623Z,2.50
2019-01-29T00:38:49.613Z,2.40
2019-01-29T00:39:49.600Z,2.50
2019-01-29T00:40:49.612Z,2.10
2019-01-29T00:41:49.585Z,2.50
2019-01-29T00:42:49.566Z,2.50
2019-01-29T00:43:49.568Z,2.00
2019-01-29T00:44:49.544Z,2.30
2019-01-29T00:45:49.547Z,2.60
2019-01-29T00:46:49.528Z,2.30
2019-01-29T00:47:49.511Z,2.40
2019-01-29T00:48:49.506Z,2.40
2019-01-29T00:49:49.489Z,2.20
2019-01-29T00:50:49.511Z,2.40
2019-01-29T00:51:49.466Z,2.10
2019-01-29T00:52:49.470Z,2.00
2019-01-29T00:53:49.442Z,2.10
2019-01-29T00:54:49.443Z,2.20
2019-01-29T00:55:49.419Z,2.10
2019-01-29T00:56:49.422Z,2.30
2019-01-29T00:57:49.399Z,1.90
2019-01-29T00:58:49.460Z,2.20
2019-01-29T00:59:49.448Z,2.20
2019-01-29T01:00:49.373Z,2.10
2019-01-29T01:01:49.367Z,2.20
2019-01-29T01:02:49.355Z,2.30
2019-01-29T01:03:49.335Z,2.20
2019-01-29T01:04:49.318Z,2.20
2019-01-29T01:05:49.307Z,2.10
2019-01-29T01:06:49.319Z,2.30
2019-01-29T01:07:49.283Z,2.20
2019-01-29T01:08:49.272Z,1.90
2019-01-29T01:09:56.799Z,2.10
2019-01-29T01:10:50.250Z,2.20
2019-01-29T01:11:49.252Z,2.20
2019-01-29T01:12:49.238Z,1.90
2019-01-29T01:13:49.215Z,2.00
2019-01-29T01:14:49.204Z,2.10
2019-01-29T01:15:49.198Z,2.20
2019-01-29T01:16:49.194Z,2.00
2019-01-29T01:17:49.170Z,2.00
2019-01-29T01:18:49.165Z,2.00
2019-01-29T01:19:49.158Z,2.00
2019-01-29T01:20:49.146Z,2.00
2019-01-29T01:21:49.138Z,2.00
2019-01-29T01:22:51.080Z,2.00
2019-01-29T01:23:49.100Z,1.80
2019-01-29T01:24:49.096Z,1.90
2019-01-29T01:25:49.078Z,1.90
2019-01-29T01:26:49.084Z,2.10
2019-01-29T01:27:49.081Z,1.90
2019-01-29T01:28:49.044Z,1.80
2019-01-29T01:29:49.035Z,1.90
2019-01-29T01:30:49.034Z,1.80
2019-01-29T01:31:49.023Z,2.00
2019-01-29T01:32:48.998Z,1.80
2019-01-29T01:33:48.988Z,2.10
2019-01-29T01:34:48.976Z,1.90
2019-01-29T01:35:48.967Z,1.90
2019-01-29T01:36:48.980Z,1.60
2019-01-29T01:37:48.941Z,1.80
2019-01-29T01:38:48.934Z,1.90
2019-01-29T01:39:48.919Z,1.60
2019-01-29T01:40:48.909Z,1.90
2019-01-29T01:41:48.915Z,1.90
2019-01-29T01:42:48.894Z,2.00
2019-01-29T01:43:48.881Z,1.90
2019-01-29T01:44:48.865Z,1.90
2019-01-29T01:45:48.852Z,1.80
2019-01-29T01:46:48.861Z,1.60
2019-01-29T01:47:48.838Z,1.70
2019-01-29T01:48:48.819Z,1.90
2019-01-29T01:49:48.818Z,1.70
2019-01-29T01:50:48.795Z,1.60
2019-01-29T01:51:48.784Z,1.80
2019-01-29T01:52:48.786Z,1.60
2019-01-29T01:53:48.772Z,1.80
2019-01-29T01:54:48.756Z,1.70
2019-01-29T01:55:48.738Z,1.70
2019-01-29T01:56:48.727Z,1.80
2019-01-29T01:57:48.731Z,1.60
2019-01-29T01:58:48.708Z,1.50
2019-01-29T01:59:48.704Z,1.70
2019-01-29T02:00:48.687Z,1.70
2019-01-29T02:01:48.672Z,1.70
2019-01-29T02:02:48.676Z,1.80
2019-01-29T02:03:48.653Z,1.80
2019-01-29T02:04:48.637Z,1.60
2019-01-29T02:05:48.633Z,1.80
2019-01-29T02:06:48.622Z,1.70
2019-01-29T02:07:48.624Z,1.60
2019-01-29T02:08:48.593Z,1.80
2019-01-29T02:09:48.582Z,1.60
2019-01-29T02:10:48.574Z,1.40
2019-01-29T02:11:48.573Z,1.80
2019-01-29T02:12:48.570Z,1.80
2019-01-29T02:13:48.536Z,1.40
2019-01-29T02:14:48.525Z,1.60
2019-01-29T02:15:48.513Z,1.30
2019-01-29T02:16:48.508Z,1.50
2019-01-29T02:17:48.527Z,1.50
2019-01-29T02:18:48.482Z,1.50
2019-01-29T02:19:48.470Z,1.70
2019-01-29T02:20:48.459Z,1.60
2019-01-29T02:21:48.448Z,1.70
2019-01-29T02:22:48.452Z,1.50
2019-01-29T02:23:48.444Z,1.80
2019-01-29T02:24:48.414Z,1.70
2019-01-29T02:25:48.401Z,1.40
2019-01-29T02:26:48.391Z,1.50
2019-01-29T02:27:48.393Z,1.30
2019-01-29T02:28:48.367Z,1.40
2019-01-29T02:29:48.377Z,1.50
2019-01-29T02:30:48.345Z,1.30
2019-01-29T02:31:48.335Z,1.40
2019-01-29T02:32:48.341Z,1.30
2019-01-29T02:33:48.316Z,1.50
2019-01-29T02:34:48.300Z,1.50
2019-01-29T02:35:48.307Z,1.60
2019-01-29T02:36:48.281Z,1.30
2019-01-29T02:37:48.280Z,1.40
2019-01-29T02:38:48.263Z,1.30
2019-01-29T02:39:48.244Z,1.50
2019-01-29T02:40:48.241Z,1.40
2019-01-29T02:41:48.243Z,1.40
2019-01-29T02:42:48.224Z,1.30
2019-01-29T02:43:48.227Z,1.40
2019-01-29T02:44:48.205Z,1.30
2019-01-29T02:45:48.178Z,1.40
2019-01-29T02:46:48.175Z,1.40
2019-01-29T02:47:48.191Z,1.20
2019-01-29T02:48:48.139Z,1.40
2019-01-29T02:49:48.130Z,1.30
2019-01-29T02:50:48.134Z,1.30
2019-01-29T02:51:48.110Z,1.20
2019-01-29T02:52:48.096Z,1.40
2019-01-29T02:53:48.114Z,1.20
2019-01-29T02:54:48.072Z,1.30
2019-01-29T02:55:48.061Z,1.50
2019-01-29T02:56:48.050Z,1.40
2019-01-29T02:57:48.048Z,1.50
2019-01-29T02:58:48.046Z,1.30
2019-01-29T02:59:48.032Z,1.10
2019-01-29T03:00:48.006Z,1.20
2019-01-29T03:01:47.996Z,1.20
2019-01-29T03:02:47.985Z,1.40
2019-01-29T03:03:47.990Z,1.50
2019-01-29T03:04:47.963Z,1.30
2019-01-29T03:05:47.959Z,1.30
2019-01-29T03:06:47.938Z,1.40
2019-01-29T03:07:47.940Z,1.40
2019-01-29T03:08:47.934Z,1.30
2019-01-29T03:09:47.905Z,1.30
2019-01-29T03:10:47.897Z,1.30
2019-01-29T03:11:47.883Z,1.20
2019-01-29T03:12:47.883Z,1.30
2019-01-29T03:13:47.879Z,1.50
2019-01-29T03:14:47.848Z,1.10
2019-01-29T03:15:47.839Z,1.30
2019-01-29T03:16:47.825Z,1.20
2019-01-29T03:17:47.819Z,1.50
2019-01-29T03:18:47.838Z,1.20
2019-01-29T03:19:47.793Z,1.30
2019-01-29T03:20:47.791Z,1.40
2019-01-29T03:21:47.772Z,1.20
2019-01-29T03:22:47.759Z,1.20
2019-01-29T03:23:47.762Z,1.20
2019-01-29T03:24:47.745Z,1.30
2019-01-29T03:25:47.729Z,1.30
2019-01-29T03:26:47.726Z,1.10
2019-01-29T03:27:47.704Z,1.10
2019-01-29T03:28:47.703Z,1.30
2019-01-29T03:29:47.680Z,1.40
2019-01-29T03:30:47.685Z,1.10
2019-01-29T03:31:47.663Z,1.10
2019-01-29T03:32:47.652Z,1.10
2019-01-29T03:33:47.651Z,1.10
2019-01-29T03:34:47.625Z,1.20
2019-01-29T03:35:47.617Z,1.20
2019-01-29T03:36:47.607Z,1.10
2019-01-29T03:37:47.594Z,1.00
2019-01-29T03:38:47.596Z,1.00
2019-01-29T03:39:47.567Z,1.40
2019-01-29T03:40:47.560Z,1.20
2019-01-29T03:41:47.547Z,1.10
2019-01-29T03:42:47.540Z,1.20
2019-01-29T03:43:47.536Z,1.20
2019-01-29T03:44:47.516Z,1.10
2019-01-29T03:45:47.498Z,1.10
2019-01-29T03:46:47.488Z,1.10
2019-01-29T03:47:47.486Z,1.10
2019-01-29T03:48:47.489Z,1.30
2019-01-29T03:49:47.454Z,1.20
2019-01-29T03:50:47.443Z,1.10
2019-01-29T03:51:47.431Z,1.00
2019-01-29T03:52:47.422Z,1.10
2019-01-29T03:53:47.412Z,1.10
2019-01-29T03:54:47.431Z,1.00
2019-01-29T03:55:47.387Z,1.00
2019-01-29T03:56:47.376Z,1.10
2019-01-29T03:57:47.364Z,1.10
2019-01-29T03:58:47.436Z,0.90
2019-01-29T03:59:47.360Z,1.10
2019-01-29T04:00:47.339Z,1.10
2019-01-29T04:01:47.328Z,1.10
2019-01-29T04:02:47.309Z,1.10
2019-01-29T04:03:47.301Z,1.10
2019-01-29T04:04:47.300Z,1.00
2019-01-29T04:05:47.281Z,1.20
2019-01-29T04:06:47.264Z,1.00
2019-01-29T04:07:47.262Z,1.00
2019-01-29T04:08:47.242Z,1.00
2019-01-29T04:09:47.247Z,1.00
2019-01-29T04:10:47.219Z,0.90
2019-01-29T04:11:47.208Z,1.00
2019-01-29T04:12:47.196Z,1.00
2019-01-29T04:13:47.195Z,0.90
2019-01-29T04:14:47.187Z,1.10
2019-01-29T04:15:47.162Z,0.90
2019-01-29T04:16:47.150Z,1.10
2019-01-29T04:17:47.144Z,1.20
2019-01-29T04:18:47.128Z,1.10
2019-01-29T04:19:47.144Z,1.00
2019-01-29T04:20:47.107Z,1.10
2019-01-29T04:21:47.099Z,0.90
2019-01-29T04:22:47.089Z,1.00
2019-01-29T04:23:48.015Z,1.10
2019-01-29T04:24:47.081Z,0.90
2019-01-29T04:25:47.056Z,0.90
2019-01-29T04:26:47.038Z,1.10
2019-01-29T04:27:47.854Z,0.90
2019-01-29T04:28:47.016Z,1.10
2019-01-29T04:29:47.031Z,1.00
2019-01-29T04:30:47.004Z,0.80
2019-01-29T04:31:46.982Z,1.10
2019-01-29T04:32:46.977Z,0.90
2019-01-29T04:33:46.959Z,1.00
2019-01-29T04:34:46.967Z,1.10
2019-01-29T04:35:46.937Z,1.10
2019-01-29T04:36:46.935Z,0.80
2019-01-29T04:37:46.929Z,1.10
2019-01-29T04:38:46.904Z,1.20
2019-01-29T04:39:46.895Z,0.90
2019-01-29T04:40:46.911Z,1.10
2019-01-29T04:41:46.869Z,1.00
2019-01-29T04:42:46.866Z,1.00
2019-01-29T04:43:46.856Z,1.00
2019-01-29T04:44:46.840Z,1.00
2019-01-29T04:45:46.837Z,1.00
2019-01-29T04:46:46.811Z,0.90
2019-01-29T04:47:46.799Z,0.80
2019-01-29T04:48:46.796Z,0.90
2019-01-29T04:49:46.780Z,0.90
2019-01-29T04:50:46.779Z,0.90
2019-01-29T04:51:46.759Z,1.00
2019-01-29T04:52:46.743Z,0.90
2019-01-29T04:53:46.732Z,1.00
2019-01-29T04:54:46.733Z,1.00
2019-01-29T04:55:46.723Z,0.80
2019-01-29T04:56:46.702Z,0.90
2019-01-29T04:57:46.696Z,0.80
2019-01-29T04:58:46.673Z,0.80
2019-01-29T04:59:46.663Z,1.00
2019-01-29T05:00:46.676Z,1.00
2019-01-29T05:01:46.640Z,1.00
2019-01-29T05:02:46.635Z,1.00
2019-01-29T05:03:46.616Z,1.10
2019-01-29T05:04:46.605Z,0.70
2019-01-29T05:05:46.607Z,1.10
2019-01-29T05:06:46.597Z,0.80
2019-01-29T05:07:46.570Z,0.80
2019-01-29T05:08:46.558Z,1.10
2019-01-29T05:09:46.550Z,0.90
2019-01-29T05:10:46.552Z,0.80
2019-01-29T05:11:46.525Z,0.80
2019-01-29T05:12:46.532Z,0.80
2019-01-29T05:13:46.507Z,0.90
2019-01-29T05:14:46.490Z,0.80
2019-01-29T05:15:46.497Z,1.10
2019-01-29T05:16:46.468Z,0.90
2019-01-29T05:17:46.463Z,1.10
2019-01-29T05:18:46.459Z,0.90
2019-01-29T05:19:46.445Z,0.80
2019-01-29T05:20:46.452Z,1.00
2019-01-29T05:21:46.411Z,0.80
2019-01-29T05:22:46.408Z,0.90
2019-01-29T05:23:46.391Z,1.00
2019-01-29T05:24:46.377Z,1.00
2019-01-29T05:25:46.412Z,0.90
2019-01-29T05:26:46.355Z,0.80
2019-01-29T05:27:46.342Z,0.80
2019-01-29T05:28:46.331Z,0.90
2019-01-29T05:29:46.325Z,0.80
2019-01-29T05:30:46.315Z,0.90
2019-01-29T05:31:46.309Z,0.90
2019-01-29T05:32:46.293Z,1.00
2019-01-29T05:33:46.274Z,0.90
2019-01-29T05:34:46.262Z,0.90
2019-01-29T05:35:46.250Z,0.80
2019-01-29T05:36:46.258Z,1.00
2019-01-29T05:37:46.241Z,1.00
2019-01-29T05:38:46.227Z,1.10
2019-01-29T05:39:46.205Z,0.90
2019-01-29T05:40:46.195Z,0.90
2019-01-29T05:41:46.203Z,1.10
2019-01-29T05:42:46.183Z,0.90
2019-01-29T05:43:46.159Z,0.80
2019-01-29T05:44:46.156Z,0.80
2019-01-29T05:45:46.140Z,0.90
2019-01-29T05:46:46.142Z,0.70
2019-01-29T05:47:46.113Z,0.90
2019-01-29T05:48:46.102Z,0.80
2019-01-29T05:49:46.096Z,0.90
2019-01-29T05:50:46.087Z,0.80
2019-01-29T05:51:46.083Z,1.00
2019-01-29T05:52:46.059Z,0.90
2019-01-29T05:53:46.047Z,1.00
2019-01-29T05:54:46.035Z,0.80
2019-01-29T05:55:46.022Z,0.80
2019-01-29T05:56:47.409Z,0.70
2019-01-29T05:57:46.000Z,0.80
2019-01-29T05:58:45.992Z,0.70
2019-01-29T05:59:45.989Z,0.80
2019-01-29T06:00:45.966Z,0.80
2019-01-29T06:01:45.967Z,0.70
2019-01-29T06:02:45.955Z,0.80
2019-01-29T06:03:45.946Z,0.80
2019-01-29T06:04:45.928Z,0.90
2019-01-29T06:05:45.910Z,0.80
2019-01-29T06:06:45.912Z,0.90
2019-01-29T06:07:45.887Z,1.00
2019-01-29T06:08:45.888Z,0.80
2019-01-29T06:09:45.868Z,0.70
2019-01-29T06:10:45.857Z,0.90
2019-01-29T06:11:45.864Z,0.90
2019-01-29T06:12:45.834Z,0.80
2019-01-29T06:13:45.823Z,0.90
2019-01-29T06:14:45.811Z,0.80
2019-01-29T06:15:45.824Z,1.10
2019-01-29T06:16:45.805Z,0.90
2019-01-29T06:17:45.776Z,1.00
2019-01-29T06:18:45.766Z,0.80
2019-01-29T06:19:45.754Z,0.80
2019-01-29T06:20:45.746Z,1.00
2019-01-29T06:21:45.766Z,1.00
2019-01-29T06:22:45.738Z,0.90
2019-01-29T06:23:45.710Z,1.00
2019-01-29T06:24:45.696Z,1.00
2019-01-29T06:25:45.713Z,0.90
2019-01-29T06:26:45.677Z,1.10
2019-01-29T06:27:45.686Z,1.00
2019-01-29T06:28:45.652Z,0.90
2019-01-29T06:29:45.640Z,0.90
2019-01-29T06:30:45.635Z,0.80
2019-01-29T06:31:45.681Z,0.90
2019-01-29T06:32:45.620Z,0.90
2019-01-29T06:33:45.613Z,1.10
2019-01-29T06:34:45.584Z,1.20
2019-01-29T06:35:45.573Z,0.90
2019-01-29T06:36:45.562Z,1.00
2019-01-29T06:37:45.563Z,1.10
2019-01-29T06:38:45.541Z,0.90
2019-01-29T06:39:45.552Z,1.10
2019-01-29T06:40:45.518Z,1.00
2019-01-29T06:41:45.503Z,1.10
2019-01-29T06:42:45.509Z,1.00
2019-01-29T06:43:45.482Z,1.10
2019-01-29T06:44:45.478Z,1.20
2019-01-29T06:45:45.480Z,1.10
2019-01-29T06:46:45.451Z,1.30
2019-01-29T06:47:45.453Z,1.30
2019-01-29T06:48:45.426Z,1.40
2019-01-29T06:49:45.420Z,1.20
2019-01-29T06:50:45.405Z,1.20
2019-01-29T06:51:45.391Z,1.40
2019-01-29T06:52:45.426Z,1.40
2019-01-29T06:53:45.369Z,1.30
2019-01-29T06:54:45.359Z,1.30
2019-01-29T06:55:45.348Z,1.20
2019-01-29T06:56:45.334Z,1.60
2019-01-29T06:57:45.336Z,1.40
2019-01-29T06:58:45.319Z,1.60
2019-01-29T06:59:45.300Z,1.40
2019-01-29T07:00:45.287Z,1.50
2019-01-29T07:01:45.277Z,1.30
2019-01-29T07:02:45.289Z,1.50
2019-01-29T07:03:45.254Z,1.60
2019-01-29T07:04:45.250Z,1.30
2019-01-29T07:05:45.231Z,1.60
2019-01-29T07:06:45.221Z,1.60
2019-01-29T07:07:45.225Z,1.30
2019-01-29T07:08:45.198Z,1.40
2019-01-29T07:09:45.184Z,1.30
2019-01-29T07:10:45.181Z,1.60
2019-01-29T07:11:45.171Z,1.20
2019-01-29T07:12:45.167Z,1.50
2019-01-29T07:13:45.139Z,1.40
2019-01-29T07:14:45.128Z,1.30
2019-01-29T07:15:45.116Z,1.30
2019-01-29T07:16:45.112Z,1.30
2019-01-29T07:17:45.129Z,1.20
2019-01-29T07:18:45.082Z,1.20
2019-01-29T07:19:45.070Z,1.20
2019-01-29T07:20:45.059Z,1.50
2019-01-29T07:21:45.047Z,1.20
2019-01-29T07:22:45.045Z,1.30
2019-01-29T07:23:45.045Z,1.40
2019-01-29T07:24:45.025Z,1.30
2019-01-29T07:25:45.002Z,1.20
2019-01-29T07:26:44.993Z,1.30
2019-01-29T07:27:44.981Z,1.20
2019-01-29T07:28:44.993Z,1.30
2019-01-29T07:29:44.963Z,1.30
2019-01-29T07:30:44.959Z,1.20
2019-01-29T07:31:44.938Z,1.20
2019-01-29T07:32:44.925Z,1.00
2019-01-29T07:33:44.930Z,1.20
2019-01-29T07:34:44.909Z,1.20
2019-01-29T07:35:44.897Z,1.00
2019-01-29T07:36:44.878Z,1.30
2019-01-29T07:37:44.867Z,1.10
2019-01-29T07:38:44.870Z,1.20
2019-01-29T07:39:44.845Z,1.10
2019-01-29T07:40:44.844Z,1.00
2019-01-29T07:41:44.831Z,1.20
2019-01-29T07:42:44.810Z,0.90
2019-01-29T07:43:44.812Z,1.20
2019-01-29T07:44:44.790Z,1.00
2019-01-29T07:45:44.784Z,1.20
2019-01-29T07:46:44.777Z,1.10
2019-01-29T07:47:44.753Z,1.10
2019-01-29T07:48:44.756Z,1.10
2019-01-29T07:49:44.729Z,1.20
2019-01-29T07:50:44.718Z,1.20
2019-01-29T07:51:44.707Z,0.90
2019-01-29T07:52:44.708Z,0.90
2019-01-29T07:53:44.704Z,1.30
2019-01-29T07:54:51.135Z,1.10
2019-01-29T07:55:45.665Z,1.00
2019-01-29T07:56:44.650Z,1.10
2019-01-29T07:57:44.638Z,1.00
2019-01-29T07:58:44.653Z,1.00
2019-01-29T07:59:44.616Z,1.30
2019-01-29T08:00:44.605Z,1.00
2019-01-29T08:01:44.594Z,1.10
2019-01-29T08:02:44.591Z,1.20
2019-01-29T08:03:44.585Z,1.00
2019-01-29T08:04:44.578Z,1.00
2019-01-29T08:05:45.452Z,1.00
2019-01-29T08:06:44.536Z,1.00
2019-01-29T08:07:44.525Z,1.00
2019-01-29T08:08:44.533Z,1.10
2019-01-29T08:09:44.563Z,0.90
2019-01-29T08:10:44.508Z,0.90
2019-01-29T08:11:44.478Z,0.90
2019-01-29T08:12:44.468Z,1.00
2019-01-29T08:13:44.496Z,1.00
2019-01-29T08:14:44.446Z,1.20
2019-01-29T08:15:44.447Z,1.00
2019-01-29T08:16:44.431Z,0.80
2019-01-29T08:17:44.411Z,1.00
2019-01-29T08:18:44.399Z,1.00
2019-01-29T08:19:44.403Z,0.80
2019-01-29T08:20:44.375Z,1.00
2019-01-29T08:21:44.365Z,0.80
2019-01-29T08:22:44.362Z,0.80
2019-01-29T08:23:44.342Z,1.00
2019-01-29T08:24:51.806Z,1.00
2019-01-29T08:25:47.921Z,0.90
2019-01-29T08:26:44.310Z,1.10
2019-01-29T08:27:44.295Z,0.90
2019-01-29T08:28:44.291Z,0.90
2019-01-29T08:29:44.287Z,0.80
2019-01-29T08:30:44.263Z,0.70
2019-01-29T08:31:44.253Z,0.80
2019-01-29T08:32:44.250Z,1.00
2019-01-29T08:33:44.226Z,1.00
2019-01-29T08:34:44.241Z,0.70
2019-01-29T08:35:44.206Z,1.00
2019-01-29T08:36:44.193Z,0.90
2019-01-29T08:37:44.181Z,0.90
2019-01-29T08:38:44.170Z,0.80
2019-01-29T08:39:44.172Z,0.80
2019-01-29T08:40:44.161Z,0.90
2019-01-29T08:41:44.136Z,0.80
2019-01-29T08:42:44.124Z,1.00
2019-01-29T08:43:44.122Z,0.80
2019-01-29T08:44:44.120Z,0.90
2019-01-29T08:45:44.089Z,0.80
2019-01-29T08:46:44.090Z,0.80
2019-01-29T08:47:44.069Z,0.80
2019-01-29T08:48:44.062Z,0.80
2019-01-29T08:49:44.061Z,0.90
2019-01-29T08:50:44.033Z,0.90
2019-01-29T08:51:44.022Z,0.80
2019-01-29T08:52:44.019Z,0.90
2019-01-29T08:53:44.004Z,0.90
2019-01-29T08:54:44.000Z,0.90
2019-01-29T08:55:43.976Z,0.80
2019-01-29T08:56:43.969Z,0.70
2019-01-29T08:57:43.954Z,0.90
2019-01-29T08:58:43.950Z,1.00
2019-01-29T08:59:43.945Z,0.90
2019-01-29T09:00:43.924Z,0.70
2019-01-29T09:01:43.910Z,0.80
2019-01-29T09:02:43.899Z,0.80
2019-01-29T09:03:43.887Z,1.10
2019-01-29T09:04:43.911Z,0.90
2019-01-29T09:05:43.876Z,0.80
2019-01-29T09:06:43.866Z,0.90
2019-01-29T09:07:43.842Z,0.90
2019-01-29T09:08:43.831Z,0.80
2019-01-29T09:09:43.835Z,0.70
2019-01-29T09:10:43.823Z,0.90
2019-01-29T09:11:43.804Z,1.10
2019-01-29T09:12:43.787Z,0.90
2019-01-29T09:13:43.775Z,0.90
2019-01-29T09:14:43.765Z,0.90
2019-01-29T09:15:43.779Z,0.80
2019-01-29T09:16:43.743Z,0.80
2019-01-29T09:17:43.732Z,0.90
2019-01-29T09:18:43.723Z,0.90
2019-01-29T09:19:43.712Z,0.90
2019-01-29T09:20:43.711Z,0.90
2019-01-29T09:21:43.691Z,0.70
2019-01-29T09:22:43.675Z,0.80
2019-01-29T09:23:43.675Z,0.80
2019-01-29T09:24:43.652Z,0.80
2019-01-29T09:25:43.657Z,0.80
2019-01-29T09:26:43.633Z,0.80
2019-01-29T09:27:43.632Z,0.70
2019-01-29T09:28:43.611Z,0.70
2019-01-29T09:29:43.606Z,0.90
2019-01-29T09:30:43.993Z,0.90
2019-01-29T09:31:43.772Z,0.80
2019-01-29T09:32:43.564Z,0.70
2019-01-29T09:33:43.643Z,0.80
2019-01-29T09:34:43.549Z,0.90
2019-01-29T09:35:43.550Z,0.80
2019-01-29T09:36:43.518Z,1.00
2019-01-29T09:37:43.507Z,0.90
2019-01-29T09:38:43.499Z,0.80
2019-01-29T09:39:43.494Z,0.90
2019-01-29T09:40:43.489Z,0.70
2019-01-29T09:41:43.464Z,0.70
2019-01-29T09:42:43.452Z,1.20
2019-01-29T09:43:43.442Z,1.00
2019-01-29T09:44:43.429Z,0.80
2019-01-29T09:45:43.443Z,0.80
2019-01-29T09:46:43.418Z,0.60
2019-01-29T09:47:43.397Z,0.80
2019-01-29T09:48:43.386Z,0.90
2019-01-29T09:49:43.375Z,0.60
2019-01-29T09:50:43.376Z,0.90
2019-01-29T09:51:43.364Z,0.70
2019-01-29T09:52:43.352Z,0.80
2019-01-29T09:53:43.331Z,0.80
2019-01-29T09:54:43.321Z,0.70
2019-01-29T09:55:43.322Z,0.70
2019-01-29T09:56:43.304Z,0.90
2019-01-29T09:57:43.293Z,0.80
2019-01-29T09:58:43.280Z,0.80
2019-01-29T09:59:43.263Z,1.10
2019-01-29T10:00:43.281Z,0.80
2019-01-29T10:01:43.246Z,0.90
2019-01-29T10:02:43.232Z,0.80
2019-01-29T10:03:43.234Z,0.90
2019-01-29T10:04:43.207Z,0.80
2019-01-29T10:05:43.197Z,1.10
2019-01-29T10:06:43.199Z,1.20
2019-01-29T10:07:43.173Z,1.10
2019-01-29T10:08:43.162Z,1.20
2019-01-29T10:09:43.169Z,1.10
2019-01-29T10:10:43.142Z,1.00
2019-01-29T10:11:43.149Z,1.00
2019-01-29T10:12:43.118Z,1.20
2019-01-29T10:13:43.117Z,1.20
2019-01-29T10:14:43.101Z,1.20
2019-01-29T10:15:43.101Z,0.90
2019-01-29T10:16:43.088Z,1.10
2019-01-29T10:17:43.063Z,1.00
2019-01-29T10:18:43.051Z,1.20
2019-01-29T10:19:43.040Z,1.20
2019-01-29T10:20:43.029Z,1.30
2019-01-29T10:21:43.043Z,1.20
2019-01-29T10:22:43.007Z,1.20
2019-01-29T10:23:42.995Z,1.00
2019-01-29T10:24:42.984Z,1.30
2019-01-29T10:25:42.980Z,1.00
2019-01-29T10:26:42.976Z,1.00
2019-01-29T10:27:42.958Z,1.10
2019-01-29T10:28:42.939Z,1.30
2019-01-29T10:29:42.928Z,1.40
2019-01-29T10:30:42.919Z,1.10
2019-01-29T10:31:42.928Z,1.20
2019-01-29T10:32:42.896Z,1.40
2019-01-29T10:33:42.891Z,1.10
2019-01-29T10:34:42.873Z,1.30
2019-01-29T10:35:42.862Z,1.00
2019-01-29T10:36:42.867Z,1.00
2019-01-29T10:37:42.846Z,1.20
2019-01-29T10:38:42.849Z,1.10
2019-01-29T10:39:42.824Z,1.20
2019-01-29T10:40:42.807Z,1.30
2019-01-29T10:41:42.812Z,1.00
2019-01-29T10:42:42.784Z,1.10
2019-01-29T10:43:42.773Z,1.30
2019-01-29T10:44:42.762Z,1.20
2019-01-29T10:45:42.760Z,1.20
2019-01-29T10:46:42.755Z,1.30
2019-01-29T10:47:42.728Z,1.10
2019-01-29T10:48:42.718Z,1.30
2019-01-29T10:49:42.709Z,1.20
2019-01-29T10:50:42.704Z,1.30
2019-01-29T10:51:42.710Z,1.10
2019-01-29T10:52:42.674Z,1.10
2019-01-29T10:53:42.664Z,1.10
2019-01-29T10:54:42.653Z,1.30
2019-01-29T10:55:47.252Z,1.10
2019-01-29T10:56:43.641Z,1.20
2019-01-29T10:57:42.625Z,1.20
2019-01-29T10:58:42.607Z,1.20
2019-01-29T10:59:42.603Z,1.10
2019-01-29T11:00:42.593Z,1.30
2019-01-29T11:01:42.604Z,1.20
2019-01-29T11:02:42.561Z,1.10
2019-01-29T11:03:42.561Z,1.00
2019-01-29T11:04:42.542Z,1.00
2019-01-29T11:05:42.527Z,1.10
2019-01-29T11:06:43.799Z,0.90
2019-01-29T11:07:42.527Z,1.00
2019-01-29T11:08:42.494Z,1.00
2019-01-29T11:09:42.491Z,1.20
2019-01-29T11:10:42.472Z,0.90
2019-01-29T11:11:42.462Z,1.00
2019-01-29T11:12:42.467Z,1.10
2019-01-29T11:13:42.438Z,0.80
2019-01-29T11:14:42.430Z,1.00
2019-01-29T11:15:42.423Z,1.10
2019-01-29T11:16:42.430Z,1.10
2019-01-29T11:17:42.421Z,0.90
2019-01-29T11:18:42.394Z,0.90
2019-01-29T11:19:42.374Z,1.00
2019-01-29T11:20:42.361Z,1.10
2019-01-29T11:21:42.362Z,1.00
2019-01-29T11:22:42.358Z,0.90
2019-01-29T11:23:42.336Z,1.00
2019-01-29T11:24:42.323Z,0.80
2019-01-29T11:25:42.308Z,0.80
2019-01-29T11:26:42.297Z,0.90
2019-01-29T11:27:42.311Z,1.10
2019-01-29T11:28:42.284Z,0.90
2019-01-29T11:29:42.274Z,0.90
2019-01-29T11:30:42.257Z,1.20
2019-01-29T11:31:42.244Z,0.70
2019-01-29T11:32:42.247Z,1.00
2019-01-29T11:33:42.232Z,1.10
2019-01-29T11:34:42.214Z,1.00
2019-01-29T11:35:42.203Z,1.00
2019-01-29T11:36:42.190Z,0.90
2019-01-29T11:37:42.195Z,1.00
2019-01-29T11:38:42.169Z,0.80
2019-01-29T11:39:42.163Z,0.80
2019-01-29T11:40:42.147Z,0.90
2019-01-29T11:41:42.147Z,0.80
2019-01-29T11:42:42.174Z,0.80
2019-01-29T11:43:42.115Z,1.00
2019-01-29T11:44:42.104Z,0.90
2019-01-29T11:45:42.097Z,1.00
2019-01-29T11:46:42.090Z,0.80
2019-01-29T11:47:42.084Z,0.70
2019-01-29T11:48:42.088Z,0.80
2019-01-29T11:49:42.050Z,0.70
2019-01-29T11:50:42.038Z,0.90
2019-01-29T11:51:42.036Z,0.80
2019-01-29T11:52:42.024Z,0.70
2019-01-29T11:53:42.025Z,0.90
2019-01-29T11:54:41.993Z,1.00
2019-01-29T11:55:41.981Z,0.80
2019-01-29T11:56:41.969Z,0.70
2019-01-29T11:57:41.965Z,0.90
2019-01-29T11:58:41.970Z,0.80
2019-01-29T11:59:41.936Z,0.70
2019-01-29T12:00:41.926Z,0.70
2019-01-29T12:01:41.915Z,0.70
2019-01-29T12:02:41.906Z,0.80
2019-01-29T12:03:41.905Z,0.80
2019-01-29T12:04:41.898Z,0.90
2019-01-29T12:05:41.871Z,0.80
2019-01-29T12:06:41.861Z,0.90
2019-01-29T12:07:41.849Z,0.90
2019-01-29T12:08:41.854Z,0.80
2019-01-29T12:09:41.827Z,0.70
2019-01-29T12:10:41.833Z,0.70
2019-01-29T12:11:41.846Z,0.80
2019-01-29T12:12:41.795Z,0.70
2019-01-29T12:13:41.799Z,0.70
2019-01-29T12:14:41.773Z,0.90
2019-01-29T12:15:41.765Z,0.90
2019-01-29T12:16:41.769Z,0.90
2019-01-29T12:17:41.741Z,0.90
2019-01-29T12:18:41.743Z,0.90
2019-01-29T12:19:41.718Z,0.90
2019-01-29T12:20:41.711Z,0.70
2019-01-29T12:21:41.701Z,1.00
2019-01-29T12:22:41.707Z,1.30
2019-01-29T12:23:41.693Z,0.80
2019-01-29T12:24:41.667Z,0.90
2019-01-29T12:25:41.655Z,1.00
2019-01-29T12:26:41.655Z,0.80
2019-01-29T12:27:41.639Z,0.70
2019-01-29T12:28:41.652Z,1.00
2019-01-29T12:29:41.610Z,0.90
2019-01-29T12:30:41.598Z,1.10
2019-01-29T12:31:41.607Z,1.00
2019-01-29T12:32:41.578Z,0.90
2019-01-29T12:33:41.582Z,0.90
2019-01-29T12:34:41.553Z,0.90
2019-01-29T12:35:41.543Z,1.10
2019-01-29T12:36:41.539Z,1.00
2019-01-29T12:37:41.573Z,0.90
2019-01-29T12:38:41.532Z,0.90
2019-01-29T12:39:41.692Z,1.10
2019-01-29T12:40:41.553Z,0.90
2019-01-29T12:41:41.567Z,1.00
2019-01-29T12:42:41.474Z,0.90
2019-01-29T12:43:41.646Z,1.00
2019-01-29T12:44:41.448Z,0.90
2019-01-29T12:45:41.452Z,1.00
2019-01-29T12:46:41.534Z,1.00
2019-01-29T12:47:41.413Z,1.10
2019-01-29T12:48:41.462Z,0.90
2019-01-29T12:49:41.400Z,1.00
2019-01-29T12:50:41.417Z,1.10
2019-01-29T12:51:41.377Z,0.80
2019-01-29T12:52:41.360Z,0.80
2019-01-29T12:53:41.351Z,0.90
2019-01-29T12:54:41.531Z,0.80
2019-01-29T12:55:41.336Z,0.90
2019-01-29T12:56:41.320Z,0.70
2019-01-29T12:57:41.327Z,0.80
2019-01-29T12:58:41.293Z,0.80
2019-01-29T12:59:41.297Z,0.80
2019-01-29T13:00:41.274Z,0.80
2019-01-29T13:01:41.325Z,1.00
2019-01-29T13:02:41.258Z,0.90
2019-01-29T13:03:41.242Z,0.80
2019-01-29T13:04:41.242Z,0.90
2019-01-29T13:05:41.215Z,0.80
2019-01-29T13:06:41.214Z,0.80
2019-01-29T13:07:41.195Z,0.80
2019-01-29T13:08:41.252Z,0.80
2019-01-29T13:09:41.205Z,0.80
2019-01-29T13:10:41.163Z,0.80
2019-01-29T13:11:41.158Z,0.90
2019-01-29T13:12:41.148Z,0.80
2019-01-29T13:13:41.138Z,0.90
2019-01-29T13:14:41.136Z,0.90
2019-01-29T13:15:41.119Z,1.10
2019-01-29T13:16:41.100Z,1.00
2019-01-29T13:17:41.088Z,0.80
2019-01-29T13:18:41.168Z,1.00
2019-01-29T13:19:41.087Z,1.00
2019-01-29T13:20:41.085Z,1.00
2019-01-29T13:21:41.044Z,1.00
2019-01-29T13:22:41.044Z,0.90
2019-01-29T13:23:41.122Z,0.90
2019-01-29T13:24:41.043Z,0.90
2019-01-29T13:25:41.003Z,0.90
2019-01-29T13:26:41.016Z,1.00
2019-01-29T13:27:41.017Z,1.20
2019-01-29T13:28:40.969Z,1.00
2019-01-29T13:29:40.956Z,1.10